createdAt,value
2018-07-06T00:00:41.330Z,100582.00
2018-07-06T00:03:27.858Z,100578.00
2018-07-06T00:06:14.143Z,100579.00
2018-07-06T00:09:01.025Z,100580.00
2018-07-06T00:11:47.386Z,100578.00
2018-07-06T00:14:34.470Z,100583.00
2018-07-06T00:17:21.167Z,100589.00
2018-07-06T00:20:07.560Z,100590.00
2018-07-06T00:22:54.090Z,100596.00
2018-07-06T00:25:42.044Z,100589.00
2018-07-06T00:28:28.567Z,100592.00
2018-07-06T00:31:15.361Z,100594.00
2018-07-06T00:34:03.757Z,100590.00
2018-07-06T00:36:50.500Z,100594.00
2018-07-06T00:39:37.238Z,100587.00
2018-07-06T00:42:23.733Z,100589.00
2018-07-06T00:45:10.229Z,100595.00
2018-07-06T00:47:57.153Z,100601.00
2018-07-06T00:50:44.004Z,100606.00
2018-07-06T00:53:30.622Z,100610.00
2018-07-06T00:56:17.090Z,100605.00
2018-07-06T00:59:03.649Z,100609.00
2018-07-06T01:01:50.179Z,100603.00
2018-07-06T01:04:36.810Z,100583.00
2018-07-06T01:08:26.444Z,100601.00
2018-07-06T01:11:12.673Z,100612.00
2018-07-06T01:13:59.803Z,100607.00
2018-07-06T01:16:46.647Z,100609.00
2018-07-06T01:19:33.382Z,100614.00
2018-07-06T01:22:19.758Z,100616.00
2018-07-06T01:25:06.489Z,100610.00
2018-07-06T01:27:53.136Z,100615.00
2018-07-06T01:30:39.875Z,100617.00
2018-07-06T01:33:26.552Z,100612.00
2018-07-06T01:36:13.497Z,100609.00
2018-07-06T01:38:59.830Z,100609.00
2018-07-06T01:41:46.654Z,100608.00
2018-07-06T01:44:33.269Z,100610.00
2018-07-06T01:47:20.961Z,100612.00
2018-07-06T01:50:07.827Z,100606.00
2018-07-06T01:52:54.530Z,100612.00
2018-07-06T01:55:40.803Z,100605.00
2018-07-06T01:58:27.584Z,100604.00
2018-07-06T02:01:14.294Z,100606.00
2018-07-06T02:04:00.865Z,100602.00
2018-07-06T02:06:47.329Z,100606.00
2018-07-06T02:09:33.882Z,100617.00
2018-07-06T02:12:20.768Z,100603.00
2018-07-06T02:15:07.320Z,100606.00
2018-07-06T02:17:53.959Z,100610.00
2018-07-06T02:20:40.768Z,100621.00
2018-07-06T02:23:27.405Z,100613.00
2018-07-06T02:26:14.067Z,100612.00
2018-07-06T02:29:00.412Z,100623.00
2018-07-06T02:31:47.141Z,100615.00
2018-07-06T02:39:39.004Z,100630.00
2018-07-06T02:42:26.557Z,100621.00
2018-07-06T02:45:13.092Z,100620.00
2018-07-06T02:47:59.557Z,100621.00
2018-07-06T02:50:46.107Z,100620.00
2018-07-06T02:53:32.529Z,100629.00
2018-07-06T02:56:19.154Z,100625.00
2018-07-06T02:59:05.728Z,100620.00
2018-07-06T03:01:52.254Z,100628.00
2018-07-06T03:04:39.155Z,100620.00
2018-07-06T03:07:25.821Z,100624.00
2018-07-06T03:10:12.219Z,100623.00
2018-07-06T03:12:59.330Z,100632.00
2018-07-06T03:15:45.888Z,100618.00
2018-07-06T03:18:32.675Z,100613.00
2018-07-06T03:21:19.152Z,100612.00
2018-07-06T03:24:06.100Z,100612.00
2018-07-06T03:26:52.664Z,100614.00
2018-07-06T03:29:39.900Z,100622.00
2018-07-06T03:32:26.344Z,100629.00
2018-07-06T03:35:13.129Z,100640.00
2018-07-06T03:37:59.966Z,100639.00
2018-07-06T03:40:46.698Z,100640.00
2018-07-06T03:43:33.357Z,100632.00
2018-07-06T03:46:19.894Z,100647.00
2018-07-06T03:49:06.416Z,100639.00
2018-07-06T03:51:52.901Z,100638.00
2018-07-06T03:54:39.612Z,100644.00
2018-07-06T03:57:26.224Z,100637.00
2018-07-06T04:00:12.954Z,100650.00
2018-07-06T04:02:59.649Z,100647.00
2018-07-06T04:05:46.010Z,100651.00
2018-07-06T04:08:32.785Z,100656.00
2018-07-06T04:11:19.429Z,100654.00
2018-07-06T04:14:06.047Z,100651.00
2018-07-06T04:16:52.753Z,100645.00
2018-07-06T04:19:40.068Z,100650.00
2018-07-06T04:22:26.824Z,100652.00
2018-07-06T04:25:13.077Z,100650.00
2018-07-06T04:27:59.826Z,100657.00
2018-07-06T04:30:46.491Z,100655.00
2018-07-06T04:33:33.201Z,100658.00
2018-07-06T04:36:19.939Z,100660.00
2018-07-06T04:39:06.663Z,100666.00
2018-07-06T04:41:53.330Z,100669.00
2018-07-06T04:44:39.985Z,100671.00
2018-07-06T04:47:26.576Z,100679.00
2018-07-06T04:50:12.908Z,100669.00
2018-07-06T04:52:59.501Z,100677.00
2018-07-06T04:55:46.053Z,100680.00
2018-07-06T04:58:32.514Z,100678.00
2018-07-06T05:01:19.207Z,100678.00
2018-07-06T05:04:05.747Z,100675.00
2018-07-06T05:06:52.991Z,100679.00
2018-07-06T05:09:39.504Z,100688.00
2018-07-06T05:12:26.141Z,100679.00
2018-07-06T05:15:12.717Z,100680.00
2018-07-06T05:17:59.087Z,100686.00
2018-07-06T05:20:45.884Z,100694.00
2018-07-06T05:23:32.349Z,100689.00
2018-07-06T05:26:18.922Z,100693.00
2018-07-06T05:29:05.477Z,100696.00
2018-07-06T05:31:51.916Z,100691.00
2018-07-06T05:34:38.515Z,100693.00
2018-07-06T05:37:24.974Z,100701.00
2018-07-06T05:40:11.433Z,100697.00
2018-07-06T05:42:57.997Z,100702.00
2018-07-06T05:45:44.373Z,100693.00
2018-07-06T05:48:30.886Z,100701.00
2018-07-06T05:51:17.443Z,100702.00
2018-07-06T05:54:04.255Z,100717.00
2018-07-06T05:56:50.893Z,100714.00
2018-07-06T05:59:37.619Z,100721.00
2018-07-06T06:02:24.358Z,100719.00
2018-07-06T06:05:10.598Z,100728.00
2018-07-06T06:07:38.720Z,100723.00
2018-07-06T06:10:09.838Z,100724.00
2018-07-06T06:12:40.454Z,100720.00
2018-07-06T06:15:11.322Z,100723.00
2018-07-06T06:17:42.452Z,100725.00
2018-07-06T06:20:17.054Z,100739.00
2018-07-06T06:22:47.482Z,100726.00
2018-07-06T06:25:17.863Z,100729.00
2018-07-06T06:27:48.426Z,100726.00
2018-07-06T06:30:19.387Z,100732.00
2018-07-06T06:32:50.405Z,100731.00
2018-07-06T06:35:20.928Z,100729.00
2018-07-06T06:37:51.660Z,100736.00
2018-07-06T06:40:21.935Z,100741.00
2018-07-06T06:42:52.844Z,100733.00
2018-07-06T06:45:23.429Z,100743.00
2018-07-06T06:47:54.056Z,100739.00
2018-07-06T06:50:25.157Z,100744.00
2018-07-06T06:52:56.287Z,100751.00
2018-07-06T06:55:27.122Z,100744.00
2018-07-06T06:57:57.971Z,100753.00
2018-07-06T07:00:35.022Z,100753.00
2018-07-06T07:03:05.411Z,100749.00
2018-07-06T07:05:36.141Z,100741.00
2018-07-06T07:08:06.499Z,100756.00
2018-07-06T07:10:36.722Z,100761.00
2018-07-06T07:13:07.046Z,100759.00
2018-07-06T07:15:37.607Z,100758.00
2018-07-06T07:18:07.854Z,100774.00
2018-07-06T07:20:38.290Z,100772.00
2018-07-06T07:23:08.997Z,100772.00
2018-07-06T07:25:39.830Z,100768.00
2018-07-06T07:28:09.951Z,100773.00
2018-07-06T07:30:40.352Z,100785.00
2018-07-06T07:33:11.017Z,100783.00
2018-07-06T07:35:41.878Z,100775.00
2018-07-06T07:38:12.269Z,100770.00
2018-07-06T07:40:42.465Z,100772.00
2018-07-06T07:43:13.561Z,100783.00
2018-07-06T07:45:45.030Z,100782.00
2018-07-06T07:48:15.445Z,100787.00
2018-07-06T07:53:05.493Z,100796.00
2018-07-06T07:55:36.610Z,100790.00
2018-07-06T07:58:07.442Z,100786.00
2018-07-06T08:00:37.937Z,100790.00
2018-07-06T08:03:08.418Z,100792.00
2018-07-06T08:05:39.373Z,100802.00
2018-07-06T08:08:10.360Z,100794.00
2018-07-06T08:10:41.292Z,100809.00
2018-07-06T08:13:11.874Z,100798.00
2018-07-06T08:15:42.276Z,100804.00
2018-07-06T08:18:12.661Z,100792.00
2018-07-06T08:20:43.658Z,100790.00
2018-07-06T08:23:13.845Z,100797.00
2018-07-06T08:25:44.325Z,100788.00
2018-07-06T08:28:14.685Z,100785.00
2018-07-06T08:30:45.626Z,100795.00
2018-07-06T08:33:16.043Z,100782.00
2018-07-06T08:36:02.898Z,100786.00
2018-07-06T08:38:33.287Z,100789.00
2018-07-06T08:41:03.270Z,100795.00
2018-07-06T08:43:33.513Z,100793.00
2018-07-06T08:46:03.778Z,100793.00
2018-07-06T08:48:34.513Z,100784.00
2018-07-06T08:51:05.006Z,100780.00
2018-07-06T08:53:34.928Z,100779.00
2018-07-06T08:56:05.174Z,100782.00
2018-07-06T08:58:35.798Z,100780.00
2018-07-06T09:01:06.151Z,100781.00
2018-07-06T09:03:36.166Z,100782.00
2018-07-06T09:06:06.865Z,100783.00
2018-07-06T09:08:37.226Z,100786.00
2018-07-06T09:11:07.566Z,100782.00
2018-07-06T09:13:37.765Z,100773.00
2018-07-06T09:16:10.761Z,100786.00
2018-07-06T09:18:42.286Z,100783.00
2018-07-06T09:21:13.147Z,100798.00
2018-07-06T09:23:43.691Z,100787.00
2018-07-06T09:26:14.435Z,100788.00
2018-07-06T09:28:44.716Z,100792.00
2018-07-06T09:31:15.319Z,100810.00
2018-07-06T09:33:45.842Z,100804.00
2018-07-06T09:36:16.522Z,100799.00
2018-07-06T09:38:47.294Z,100799.00
2018-07-06T09:41:18.475Z,100795.00
2018-07-06T09:43:49.024Z,100803.00
2018-07-06T09:46:19.382Z,100797.00
2018-07-06T09:48:53.121Z,100797.00
2018-07-06T09:51:23.679Z,100797.00
2018-07-06T09:53:54.894Z,100801.00
2018-07-06T09:56:25.297Z,100799.00
2018-07-06T09:58:57.179Z,100799.00
2018-07-06T10:01:27.631Z,100801.00
2018-07-06T10:03:58.036Z,100804.00
2018-07-06T10:06:28.797Z,100799.00
2018-07-06T10:08:58.941Z,100797.00
2018-07-06T10:11:30.990Z,100795.00
2018-07-06T10:14:01.377Z,100790.00
2018-07-06T10:16:31.811Z,100789.00
2018-07-06T10:19:03.024Z,100790.00
2018-07-06T10:21:33.391Z,100789.00
2018-07-06T10:24:03.997Z,100788.00
2018-07-06T10:26:34.801Z,100794.00
2018-07-06T10:30:18.394Z,100797.00
2018-07-06T10:32:48.821Z,100800.00
2018-07-06T10:35:20.200Z,100797.00
2018-07-06T10:37:51.087Z,100802.00
2018-07-06T10:40:21.393Z,100799.00
2018-07-06T10:42:52.076Z,100795.00
2018-07-06T10:45:22.211Z,100808.00
2018-07-06T10:47:52.788Z,100804.00
2018-07-06T10:50:24.180Z,100798.00
2018-07-06T10:52:54.756Z,100795.00
2018-07-06T10:55:25.056Z,100801.00
2018-07-06T10:57:55.413Z,100794.00
2018-07-06T11:00:25.685Z,100802.00
2018-07-06T11:02:56.120Z,100804.00
2018-07-06T11:05:26.962Z,100812.00
2018-07-06T11:07:57.364Z,100808.00
2018-07-06T11:10:28.104Z,100802.00
2018-07-06T11:12:58.704Z,100797.00
2018-07-06T11:15:28.882Z,100810.00
2018-07-06T11:17:59.677Z,100807.00
2018-07-06T11:20:30.001Z,100807.00
2018-07-06T11:23:00.681Z,100801.00
2018-07-06T11:25:31.389Z,100806.00
2018-07-06T11:28:01.534Z,100806.00
2018-07-06T11:30:31.965Z,100808.00
2018-07-06T11:33:02.727Z,100806.00
2018-07-06T11:35:33.098Z,100803.00
2018-07-06T11:38:03.418Z,100811.00
2018-07-06T11:40:34.490Z,100804.00
2018-07-06T11:43:04.792Z,100803.00
2018-07-06T11:45:35.204Z,100804.00
2018-07-06T11:48:05.903Z,100804.00
2018-07-06T11:50:36.904Z,100806.00
2018-07-06T11:53:07.502Z,100803.00
2018-07-06T11:55:37.653Z,100795.00
2018-07-06T11:58:08.774Z,100797.00
2018-07-06T12:00:39.061Z,100797.00
2018-07-06T12:03:09.593Z,100797.00
2018-07-06T12:05:40.149Z,100794.00
2018-07-06T12:08:10.368Z,100802.00
2018-07-06T12:10:41.182Z,100805.00
2018-07-06T12:13:11.303Z,100805.00
2018-07-06T12:15:41.949Z,100797.00
2018-07-06T12:18:12.651Z,100801.00
2018-07-06T12:20:42.736Z,100799.00
2018-07-06T12:23:13.092Z,100801.00
2018-07-06T12:25:44.291Z,100800.00
2018-07-06T12:28:14.497Z,100798.00
2018-07-06T12:30:44.758Z,100788.00
2018-07-06T12:33:15.058Z,100775.00
2018-07-06T12:35:45.816Z,100788.00
2018-07-06T12:38:16.290Z,100791.00
2018-07-06T12:40:46.791Z,100778.00
2018-07-06T12:43:17.085Z,100780.00
2018-07-06T12:45:47.785Z,100769.00
2018-07-06T12:48:18.290Z,100781.00
2018-07-06T12:50:48.849Z,100783.00
2018-07-06T12:53:19.418Z,100780.00
2018-07-06T12:55:49.844Z,100775.00
2018-07-06T12:58:20.519Z,100787.00
2018-07-06T13:00:51.205Z,100773.00
2018-07-06T13:03:21.633Z,100770.00
2018-07-06T13:05:51.759Z,100778.00
2018-07-06T13:08:23.081Z,100781.00
2018-07-06T13:10:53.579Z,100770.00
2018-07-06T13:13:23.906Z,100770.00
2018-07-06T13:15:53.964Z,100763.00
2018-07-06T13:18:24.546Z,100776.00
2018-07-06T13:20:55.453Z,100769.00
2018-07-06T13:23:26.057Z,100772.00
2018-07-06T13:25:56.470Z,100765.00
2018-07-06T13:28:26.896Z,100767.00
2018-07-06T13:30:57.248Z,100774.00
2018-07-06T13:33:27.722Z,100776.00
2018-07-06T13:35:57.809Z,100777.00
2018-07-06T13:38:28.778Z,100772.00
2018-07-06T13:40:58.957Z,100773.00
2018-07-06T13:43:30.257Z,100769.00
2018-07-06T13:46:01.287Z,100777.00
2018-07-06T13:48:31.994Z,100772.00
2018-07-06T13:51:02.230Z,100771.00
2018-07-06T13:53:32.370Z,100768.00
2018-07-06T13:56:02.514Z,100779.00
2018-07-06T13:58:32.659Z,100774.00
2018-07-06T14:01:02.929Z,100780.00
2018-07-06T14:03:33.048Z,100779.00
2018-07-06T14:06:03.326Z,100765.00
2018-07-06T14:08:34.821Z,100746.00
2018-07-06T14:11:05.905Z,100784.00
2018-07-06T14:13:36.355Z,100775.00
2018-07-06T14:16:06.546Z,100759.00
2018-07-06T14:18:36.871Z,100763.00
2018-07-06T14:21:07.812Z,100776.00
2018-07-06T14:23:38.102Z,100785.00
2018-07-06T14:26:08.508Z,100770.00
2018-07-06T14:28:38.810Z,100786.00
2018-07-06T14:31:09.437Z,100775.00
2018-07-06T14:33:40.360Z,100782.00
2018-07-06T14:36:10.825Z,100762.00
2018-07-06T14:38:41.107Z,100766.00
2018-07-06T14:41:11.327Z,100761.00
2018-07-06T14:43:41.654Z,100759.00
2018-07-06T14:46:11.881Z,100755.00
2018-07-06T14:48:42.029Z,100765.00
2018-07-06T14:51:12.448Z,100775.00
2018-07-06T14:53:42.753Z,100765.00
2018-07-06T14:56:13.069Z,100785.00
2018-07-06T14:58:43.192Z,100775.00
2018-07-06T15:01:14.216Z,100765.00
2018-07-06T15:03:44.280Z,100800.00
2018-07-06T15:06:14.581Z,100797.00
2018-07-06T15:08:45.179Z,100793.00
2018-07-06T15:11:15.540Z,100801.00
2018-07-06T15:13:45.906Z,100791.00
2018-07-06T15:16:16.881Z,100778.00
2018-07-06T15:18:47.464Z,100762.00
2018-07-06T15:21:18.806Z,100767.00
2018-07-06T15:23:50.841Z,100773.00
2018-07-06T15:26:21.961Z,100765.00
2018-07-06T15:28:53.064Z,100783.00
2018-07-06T15:31:23.368Z,100771.00
2018-07-06T15:33:53.670Z,100772.00
2018-07-06T15:36:24.104Z,100786.00
2018-07-06T15:38:54.430Z,100782.00
2018-07-06T15:41:24.758Z,100774.00
2018-07-06T15:43:55.935Z,100770.00
2018-07-06T15:46:26.362Z,100778.00
2018-07-06T15:48:56.787Z,100792.00
2018-07-06T15:51:27.281Z,100776.00
2018-07-06T15:53:57.341Z,100785.00
2018-07-06T15:56:28.608Z,100790.00
2018-07-06T15:58:58.821Z,100798.00
2018-07-06T16:01:29.324Z,100789.00
2018-07-06T16:03:59.519Z,100785.00
2018-07-06T16:06:30.119Z,100784.00
2018-07-06T16:09:00.297Z,100786.00
2018-07-06T16:11:30.776Z,100777.00
2018-07-06T16:14:01.600Z,100777.00
2018-07-06T16:16:31.970Z,100777.00
2018-07-06T16:19:02.388Z,100767.00
2018-07-06T16:21:32.561Z,100775.00
2018-07-06T16:24:03.303Z,100768.00
2018-07-06T16:26:33.855Z,100767.00
2018-07-06T16:29:04.267Z,100770.00
2018-07-06T16:31:35.000Z,100765.00
2018-07-06T16:34:05.677Z,100767.00
2018-07-06T16:36:35.888Z,100768.00
2018-07-06T16:39:07.204Z,100768.00
2018-07-06T16:41:38.386Z,100773.00
2018-07-06T16:44:08.769Z,100772.00
2018-07-06T16:46:39.091Z,100766.00
2018-07-06T16:49:09.806Z,100774.00
2018-07-06T16:51:40.167Z,100774.00
2018-07-06T16:54:10.329Z,100761.00
2018-07-06T16:56:40.502Z,100761.00
2018-07-06T16:59:11.002Z,100753.00
2018-07-06T17:01:41.218Z,100745.00
2018-07-06T17:04:11.452Z,100749.00
2018-07-06T17:06:42.270Z,100756.00
2018-07-06T17:09:15.278Z,100753.00
2018-07-06T17:11:45.628Z,100749.00
2018-07-06T17:14:15.994Z,100751.00
2018-07-06T17:16:47.053Z,100756.00
2018-07-06T17:19:23.635Z,100750.00
2018-07-06T17:21:54.940Z,100758.00
2018-07-06T17:24:26.570Z,100762.00
2018-07-06T17:26:56.945Z,100756.00
2018-07-06T17:29:27.549Z,100754.00
2018-07-06T17:31:58.549Z,100760.00
2018-07-06T17:34:29.389Z,100753.00
2018-07-06T17:36:59.244Z,100748.00
2018-07-06T17:39:29.573Z,100746.00
2018-07-06T17:41:59.610Z,100736.00
2018-07-06T17:44:31.083Z,100734.00
2018-07-06T17:47:01.306Z,100741.00
2018-07-06T17:49:32.508Z,100754.00
2018-07-06T17:52:02.725Z,100748.00
2018-07-06T17:54:33.055Z,100756.00
2018-07-06T17:57:06.330Z,100745.00
2018-07-06T17:59:38.853Z,100756.00
2018-07-06T18:02:11.292Z,100745.00
2018-07-06T18:04:41.723Z,100756.00
2018-07-06T18:07:12.391Z,100764.00
2018-07-06T18:09:43.077Z,100760.00
2018-07-06T18:12:13.504Z,100759.00
2018-07-06T18:14:43.873Z,100763.00
2018-07-06T18:17:14.778Z,100765.00
2018-07-06T18:19:44.991Z,100764.00
2018-07-06T18:22:15.236Z,100762.00
2018-07-06T18:24:45.564Z,100763.00
2018-07-06T18:27:15.813Z,100762.00
2018-07-06T18:29:47.449Z,100769.00
2018-07-06T18:32:17.588Z,100774.00
2018-07-06T18:34:49.306Z,100763.00
2018-07-06T18:37:19.783Z,100760.00
2018-07-06T18:39:50.364Z,100764.00
2018-07-06T18:42:30.507Z,100762.00
2018-07-06T18:45:00.747Z,100768.00
2018-07-06T18:47:31.088Z,100764.00
2018-07-06T18:50:02.080Z,100762.00
2018-07-06T18:52:33.222Z,100770.00
2018-07-06T18:55:03.600Z,100763.00
2018-07-06T18:57:33.973Z,100767.00
2018-07-06T19:00:04.698Z,100761.00
2018-07-06T19:02:35.169Z,100767.00
2018-07-06T19:05:05.460Z,100771.00
2018-07-06T19:07:35.861Z,100770.00
2018-07-06T19:10:06.797Z,100767.00
2018-07-06T19:12:37.851Z,100770.00
2018-07-06T19:15:09.635Z,100773.00
2018-07-06T19:17:40.225Z,100765.00
2018-07-06T19:20:10.983Z,100775.00
2018-07-06T19:22:41.317Z,100772.00
2018-07-06T19:25:12.511Z,100783.00
2018-07-06T19:27:45.651Z,100778.00
2018-07-06T19:30:16.044Z,100778.00
2018-07-06T19:32:46.310Z,100779.00
2018-07-06T19:35:16.723Z,100781.00
2018-07-06T19:37:47.339Z,100779.00
2018-07-06T19:40:18.191Z,100791.00
2018-07-06T19:42:48.622Z,100786.00
2018-07-06T19:45:19.254Z,100802.00
2018-07-06T19:47:50.202Z,100809.00
2018-07-06T19:50:20.225Z,100816.00
2018-07-06T19:52:51.158Z,100812.00
2018-07-06T19:55:21.353Z,100818.00
2018-07-06T19:57:51.965Z,100820.00
2018-07-06T20:00:22.291Z,100818.00
2018-07-06T20:02:52.572Z,100826.00
2018-07-06T20:05:23.496Z,100824.00
2018-07-06T20:07:54.763Z,100835.00
2018-07-06T20:10:24.820Z,100837.00
2018-07-06T20:12:55.166Z,100837.00
2018-07-06T20:15:25.595Z,100836.00
2018-07-06T20:17:55.893Z,100846.00
2018-07-06T20:20:25.958Z,100849.00
2018-07-06T20:22:56.350Z,100855.00
2018-07-06T20:25:26.683Z,100861.00
2018-07-06T20:27:56.923Z,100859.00
2018-07-06T20:30:27.563Z,100857.00
2018-07-06T20:32:57.810Z,100865.00
2018-07-06T20:35:30.709Z,100864.00
2018-07-06T20:38:01.449Z,100865.00
2018-07-06T20:40:31.855Z,100870.00
2018-07-06T20:43:01.833Z,100878.00
2018-07-06T20:45:32.194Z,100879.00
2018-07-06T20:48:02.490Z,100879.00
2018-07-06T20:50:33.614Z,100884.00
2018-07-06T20:53:04.751Z,100891.00
2018-07-06T20:55:36.992Z,100885.00
2018-07-06T20:58:07.876Z,100884.00
2018-07-06T21:00:38.732Z,100892.00
2018-07-06T21:03:09.258Z,100896.00
2018-07-06T21:05:39.714Z,100888.00
2018-07-06T21:08:10.888Z,100898.00
2018-07-06T21:10:42.091Z,100906.00
2018-07-06T21:13:12.786Z,100904.00
2018-07-06T21:15:45.870Z,100907.00
2018-07-06T21:18:37.407Z,100905.00
2018-07-06T21:21:09.047Z,100899.00
2018-07-06T21:23:39.575Z,100913.00
2018-07-06T21:26:16.237Z,100916.00
2018-07-06T21:28:50.455Z,100910.00
2018-07-06T21:31:29.959Z,100916.00
2018-07-06T21:34:00.688Z,100919.00
2018-07-06T21:36:31.214Z,100911.00
2018-07-06T21:39:01.718Z,100924.00
2018-07-06T21:41:33.823Z,100927.00
2018-07-06T21:44:05.569Z,100929.00
2018-07-06T21:46:37.482Z,100926.00
2018-07-06T21:49:08.853Z,100920.00
2018-07-06T21:51:39.859Z,100926.00
2018-07-06T21:54:10.634Z,100927.00
2018-07-06T21:56:41.347Z,100931.00
2018-07-06T21:59:11.438Z,100931.00
2018-07-06T22:01:42.566Z,100937.00
2018-07-06T22:04:13.021Z,100939.00
2018-07-06T22:06:43.210Z,100936.00
2018-07-06T22:09:13.997Z,100945.00
2018-07-06T22:11:44.444Z,100948.00
2018-07-06T22:14:15.482Z,100946.00
2018-07-06T22:16:46.376Z,100942.00
2018-07-06T22:19:17.672Z,100940.00
2018-07-06T22:21:48.282Z,100941.00
2018-07-06T22:24:18.784Z,100949.00
2018-07-06T22:26:50.180Z,100959.00
2018-07-06T22:29:20.773Z,100952.00
2018-07-06T22:31:51.197Z,100954.00
2018-07-06T22:34:21.870Z,100958.00
2018-07-06T22:36:52.477Z,100953.00
2018-07-06T22:39:22.661Z,100953.00
2018-07-06T22:41:53.232Z,100960.00
2018-07-06T22:44:23.224Z,100951.00
2018-07-06T22:46:53.985Z,100948.00
2018-07-06T22:49:24.122Z,100947.00
2018-07-06T22:51:54.416Z,100944.00
2018-07-06T22:54:25.367Z,100947.00
2018-07-06T22:56:55.610Z,100945.00
2018-07-06T22:59:26.557Z,100955.00
2018-07-06T23:01:59.604Z,100949.00
2018-07-06T23:04:29.789Z,100956.00
2018-07-06T23:06:59.961Z,100963.00
2018-07-06T23:09:30.364Z,100960.00
2018-07-06T23:12:00.725Z,100958.00
2018-07-06T23:14:30.906Z,100958.00
2018-07-06T23:17:01.215Z,100953.00
2018-07-06T23:19:32.009Z,100953.00
2018-07-06T23:22:02.246Z,100946.00
2018-07-06T23:24:32.534Z,100946.00
2018-07-06T23:27:03.373Z,100942.00
2018-07-06T23:29:33.871Z,100942.00
2018-07-06T23:32:15.749Z,100947.00
2018-07-06T23:34:45.995Z,100936.00
2018-07-06T23:37:16.194Z,100940.00
2018-07-06T23:39:46.326Z,100940.00
2018-07-06T23:42:17.206Z,100935.00
2018-07-06T23:44:47.280Z,100931.00
2018-07-06T23:47:17.679Z,100934.00
2018-07-06T23:49:47.887Z,100932.00
2018-07-06T23:52:18.492Z,100933.00
2018-07-06T23:54:48.696Z,100936.00
2018-07-06T23:57:18.789Z,100937.00
2018-07-06T23:59:49.066Z,100938.00
